This is the latest recevied weather packets stored in our database for station/object OK1FET-5. If no packets are shown the sender has not sent any weather packets the latest 10 day(s).
| Time | Temp. | Humidity | Pressure | Rain* | Wind** | Luminosity | Snow |
|---|---|---|---|---|---|---|---|
| 1777812512 | 27.78° C | 23% | 1015 hPa | - | - | - | - |
| 1777809849 | 27.22° C | 24% | 1015.4 hPa | - | - | - | - |
| 1777808370 | 26.67° C | 25% | 1015.7 hPa | - | - | - | - |
| 1777804525 | 26.11° C | 28% | 1016.5 hPa | - | - | - | - |
| 1777804229 | 26.11° C | 28% | 1016.6 hPa | - | - | - | - |
| 1777800977 | 23.89° C | 32% | 1017.4 hPa | - | - | - | - |
| 1777800682 | 23.89° C | 32% | 1017.3 hPa | - | - | - | - |
| 1777800386 | 23.33° C | 32% | 1017.4 hPa | - | - | - | - |
| 1777800091 | 23.33° C | 32% | 1017.4 hPa | - | - | - | - |
| 1777799796 | 22.78° C | 32% | 1017.4 hPa | - | - | - | - |
| 1777799500 | 22.78° C | 32% | 1017.4 hPa | - | - | - | - |
| 1777799205 | 22.78° C | 32% | 1017.5 hPa | - | - | - | - |
| 1777798910 | 22.78° C | 32% | 1017.5 hPa | - | - | - | - |
| 1777798614 | 22.78° C | 33% | 1017.6 hPa | - | - | - | - |
| 1777798319 | 22.22° C | 33% | 1017.6 hPa | - | - | - | - |
| 1777798024 | 22.22° C | 33% | 1017.7 hPa | - | - | - | - |
| 1777796843 | 21.11° C | 35% | 1017.8 hPa | - | - | - | - |
| 1777796548 | 21.11° C | 35% | 1017.9 hPa | - | - | - | - |
| 1777796253 | 21.11° C | 35% | 1017.9 hPa | - | - | - | - |
| 1777795958 | 20.56° C | 34% | 1018 hPa | - | - | - | - |
| 1777795367 | 20.56° C | 36% | 1018 hPa | - | - | - | - |
| 1777795072 | 20.56° C | 36% | 1017.9 hPa | - | - | - | - |
| 1777794778 | 20° C | 36% | 1018 hPa | - | - | - | - |
| 1777794482 | 20° C | 38% | 1018 hPa | - | - | - | - |
| 1777793892 | 19.44° C | 38% | 1018 hPa | - | - | - | - |
* Rain since midnight (hover to see other rain measurements)
** Current wind speed in m/s (hover to see current wind gust speed)